Time;durP1;ratioP1;P1;durP2;ratioP2;P2;SDS_P1;SDS_P2;PMS_P1;PMS_P2;Temp;Humidity;BMP_temperature;BMP_pressure;BME280_temperature;BME280_humidity;BME280_pressure;Samples;Min_cycle;Max_cycle;Signal;HPM_P1;HPM_P2
2021/06/26 00:01:14;;;;;;;2.47;2.27;;;;;;;17.15;60.26;100974.72;5106218;28;20687;-72
2021/06/26 00:03:40;;;;;;;3.17;2.27;;;;;;;17.23;60.23;100988.47;5105471;28;20212;-72
2021/06/26 00:06:07;;;;;;;2.80;2.53;;;;;;;17.26;61.75;100942.63;5105269;28;20249;-72
2021/06/26 00:08:33;;;;;;;2.10;2.00;;;;;;;17.33;61.56;100924.78;5105003;28;20695;-73
2021/06/26 00:11:00;;;;;;;2.10;2.00;;;;;;;17.37;60.71;100969.47;5105308;28;20202;-72
2021/06/26 00:13:27;;;;;;;2.40;2.00;;;;;;;17.34;60.42;100981.91;5104780;28;20224;-72
2021/06/26 00:15:55;;;;;;;2.40;2.20;;;;;;;17.36;60.54;100998.53;5104210;28;20230;-73
2021/06/26 00:18:22;;;;;;;2.40;2.20;;;;;;;17.30;62.28;100907.28;5105268;28;20633;-72
2021/06/26 00:20:48;;;;;;;2.50;2.30;;;;;;;17.16;60.32;100925.44;5105310;28;20210;-72
2021/06/26 00:23:15;;;;;;;2.33;2.23;;;;;;;16.96;59.58;101056.28;5105013;28;20209;-72
2021/06/26 00:25:41;;;;;;;2.83;2.63;;;;;;;17.01;62.18;100930.38;5105155;28;20723;-72
2021/06/26 00:28:08;;;;;;;3.27;2.57;;;;;;;16.99;62.37;100894.44;5105176;28;20206;-72
2021/06/26 00:30:34;;;;;;;2.70;2.50;;;;;;;17.05;63.43;100860.78;5104804;28;20719;-72
2021/06/26 00:33:02;;;;;;;2.73;2.53;;;;;;;17.09;63.12;100872.06;5104675;28;20217;-73
2021/06/26 00:35:29;;;;;;;3.00;2.53;;;;;;;17.15;62.92;100890.28;5104557;28;20936;-73
2021/06/26 00:37:55;;;;;;;3.13;2.90;;;;;;;17.18;63.81;100840.03;5104900;28;20296;-72
2021/06/26 00:40:22;;;;;;;2.53;2.33;;;;;;;17.17;60.65;100953.56;5105133;28;20211;-73
2021/06/26 00:42:48;;;;;;;9.73;2.27;;;;;;;17.11;58.92;101101.50;5104220;28;20718;-72
2021/06/26 00:45:16;;;;;;;2.43;2.23;;;;;;;17.14;59.09;101091.69;5104465;28;20210;-72
2021/06/26 00:47:43;;;;;;;2.30;2.20;;;;;;;17.13;59.49;101031.94;5104055;28;20580;-72
2021/06/26 00:50:16;;;;;;;2.63;2.20;;;;;;;17.14;59.91;101032.78;5105468;27;20208;-72
2021/06/26 00:52:43;;;;;;;2.50;2.30;;;;;;;17.13;60.62;101002.06;5105511;27;20215;-72
2021/06/26 00:55:11;;;;;;;2.77;2.57;;;;;;;17.11;60.32;101003.91;5106183;27;20249;-72
2021/06/26 00:57:38;;;;;;;2.40;2.20;;;;;;;17.10;60.40;101010.94;5105201;27;20219;-73
2021/06/26 01:00:06;;;;;;;4.07;3.83;;;;;;;17.10;61.10;100981.91;5105497;27;20251;-72
2021/06/26 01:02:32;;;;;;;2.70;2.50;;;;;;;17.12;61.04;100966.03;5104434;27;20215;-72
2021/06/26 01:04:59;;;;;;;3.43;3.23;;;;;;;17.05;61.94;100936.41;5105481;27;20210;-72
2021/06/26 01:07:27;;;;;;;3.27;2.97;;;;;;;17.07;61.90;100945.97;5106006;27;20615;-72
2021/06/26 01:09:53;;;;;;;2.90;2.80;;;;;;;17.05;61.51;100966.28;5104852;27;20267;-72
2021/06/26 01:12:19;;;;;;;3.17;2.97;;;;;;;17.02;62.00;100955.81;5105370;27;20248;-72
2021/06/26 01:14:50;;;;;;;3.80;3.60;;;;;;;17.02;62.31;100933.88;5104733;27;20684;-73
2021/06/26 01:17:16;;;;;;;2.83;2.73;;;;;;;16.91;63.88;100865.72;5104983;27;20715;-73
2021/06/26 01:19:43;;;;;;;4.73;3.00;;;;;;;16.98;63.60;100867.19;5105091;27;20549;-72
2021/06/26 01:22:09;;;;;;;2.70;2.60;;;;;;;16.87;64.29;100856.22;5104461;27;20206;-73
2021/06/26 01:24:37;;;;;;;3.73;3.53;;;;;;;16.97;63.73;100878.69;5105449;27;20661;-72
2021/06/26 01:27:04;;;;;;;3.20;3.00;;;;;;;16.94;63.39;100907.78;5103735;27;20233;-73
2021/06/26 01:29:31;;;;;;;3.33;3.03;;;;;;;17.00;63.69;100899.63;5105500;27;20512;-72
2021/06/26 01:31:58;;;;;;;3.17;2.97;;;;;;;17.03;64.09;100877.59;5103566;27;20207;-72
2021/06/26 01:34:24;;;;;;;4.23;3.93;;;;;;;16.91;65.21;100834.09;5099710;27;20206;-71
2021/06/26 01:36:51;;;;;;;3.80;3.57;;;;;;;16.96;65.72;100807.53;5102265;27;20332;-72
2021/06/26 01:39:18;;;;;;;3.97;3.47;;;;;;;16.92;65.60;100803.28;5103784;28;20218;-72
2021/06/26 01:41:46;;;;;;;4.07;3.87;;;;;;;16.92;65.80;100819.13;5103365;28;20578;-72
2021/06/26 01:44:14;;;;;;;3.30;3.10;;;;;;;16.93;65.28;100819.06;5102792;28;20207;-72
2021/06/26 01:46:40;;;;;;;4.10;3.80;;;;;;;16.94;64.44;100865.59;5103497;28;20325;-72
2021/06/26 01:49:09;;;;;;;5.60;4.10;;;;;;;16.96;64.26;100892.75;5103358;28;20217;-73
2021/06/26 01:51:36;;;;;;;7.07;4.33;;;;;;;17.01;64.44;100866.22;5103569;28;20216;-72
2021/06/26 01:54:04;;;;;;;4.00;3.80;;;;;;;17.04;65.77;100814.19;5103371;28;20202;-73
2021/06/26 01:56:30;;;;;;;4.07;3.73;;;;;;;17.09;66.79;100771.84;5103161;28;20226;-72
2021/06/26 01:58:58;;;;;;;3.63;3.33;;;;;;;17.06;66.03;100801.81;5103142;28;20215;-71
2021/06/26 02:01:25;;;;;;;3.53;3.33;;;;;;;17.11;65.84;100828.03;5103247;28;20210;-72
2021/06/26 02:03:51;;;;;;;3.93;3.10;;;;;;;17.05;66.07;100808.00;5102576;28;20209;-72
2021/06/26 02:06:18;;;;;;;2.87;2.77;;;;;;;17.00;65.26;100846.88;5103019;28;20241;-73
2021/06/26 02:08:45;;;;;;;4.37;4.00;;;;;;;17.02;65.36;100850.31;5103423;28;20221;-73
2021/06/26 02:11:11;;;;;;;3.50;3.30;;;;;;;17.04;65.29;100839.72;5102952;28;20230;-74
2021/06/26 02:13:39;;;;;;;3.93;3.70;;;;;;;17.01;65.56;100834.59;5102689;28;20214;-72
2021/06/26 02:16:07;;;;;;;4.43;3.27;;;;;;;16.97;66.44;100801.34;5102834;28;20238;-72
2021/06/26 02:18:33;;;;;;;3.87;3.67;;;;;;;16.91;65.75;100820.00;5102917;28;20219;-73
2021/06/26 02:21:00;;;;;;;4.53;4.13;;;;;;;16.82;65.12;100856.38;5103314;28;20223;-73
2021/06/26 02:23:27;;;;;;;3.73;3.43;;;;;;;16.81;63.56;100938.16;5102600;28;20520;-73
2021/06/26 02:25:54;;;;;;;2.83;2.63;;;;;;;16.85;63.81;100940.66;5102610;28;20222;-74
2021/06/26 02:28:20;;;;;;;4.70;3.37;;;;;;;16.77;64.75;100907.53;5103368;28;20660;-73
2021/06/26 02:30:47;;;;;;;4.33;3.93;;;;;;;16.74;65.30;100884.78;5102883;28;20210;-72
2021/06/26 02:33:15;;;;;;;4.73;3.77;;;;;;;16.74;65.76;100839.97;5102201;28;20277;-73
2021/06/26 02:35:41;;;;;;;3.90;3.70;;;;;;;16.70;66.27;100812.00;5102966;28;20231;-72
2021/06/26 02:38:08;;;;;;;3.73;3.40;;;;;;;16.70;66.25;100811.16;5101914;28;20367;-73
2021/06/26 02:40:34;;;;;;;4.27;3.97;;;;;;;16.68;65.95;100835.78;5102378;28;20605;-73
2021/06/26 02:43:01;;;;;;;3.70;3.37;;;;;;;16.69;66.70;100802.38;5102796;28;20647;-73
2021/06/26 02:45:27;;;;;;;4.63;3.93;;;;;;;16.70;67.39;100780.38;5102643;28;20226;-73
2021/06/26 02:47:54;;;;;;;3.43;3.23;;;;;;;16.66;67.34;100769.06;5102275;28;20693;-73
2021/06/26 02:50:21;;;;;;;3.63;3.43;;;;;;;16.65;67.59;100771.78;5102889;28;20201;-73
2021/06/26 02:52:48;;;;;;;4.77;4.47;;;;;;;16.67;67.17;100780.50;5102627;28;20209;-73
2021/06/26 02:55:15;;;;;;;3.33;3.00;;;;;;;16.45;62.26;101000.03;5102319;28;20206;-72
2021/06/26 02:57:41;;;;;;;3.77;3.53;;;;;;;16.31;61.76;101101.50;5101797;28;20593;-73
2021/06/26 03:00:10;;;;;;;3.80;3.60;;;;;;;16.20;61.68;101078.16;5102845;28;20574;-73
2021/06/26 03:02:36;;;;;;;4.13;3.93;;;;;;;16.32;63.49;100990.81;5102186;28;20282;-72
2021/06/26 03:05:04;;;;;;;4.30;4.10;;;;;;;16.44;65.42;100878.88;5102857;28;20294;-73
2021/06/26 03:07:32;;;;;;;3.70;3.50;;;;;;;16.44;66.01;100841.97;5102506;28;20576;-73
2021/06/26 03:09:58;;;;;;;4.70;4.40;;;;;;;16.39;67.28;100786.81;5102717;28;20206;-73
2021/06/26 03:12:25;;;;;;;3.87;3.67;;;;;;;16.45;67.79;100772.53;5102009;28;20649;-73
2021/06/26 03:14:51;;;;;;;4.37;4.07;;;;;;;16.47;68.00;100757.53;5102506;28;20686;-74
2021/06/26 03:17:18;;;;;;;4.37;3.97;;;;;;;16.48;68.00;100765.38;5102132;28;20224;-73
2021/06/26 03:19:44;;;;;;;4.07;3.77;;;;;;;16.55;67.83;100778.31;5102518;28;20227;-73
2021/06/26 03:22:11;;;;;;;4.23;4.03;;;;;;;16.53;67.67;100807.38;5102259;28;20277;-73
2021/06/26 03:24:39;;;;;;;3.80;3.60;;;;;;;16.50;67.70;100804.84;5102778;28;20208;-74
2021/06/26 03:27:06;;;;;;;4.10;3.80;;;;;;;16.52;67.91;100800.38;5102112;28;20235;-73
2021/06/26 03:29:32;;;;;;;4.80;4.50;;;;;;;16.50;68.38;100762.69;5102343;28;20199;-73
2021/06/26 03:31:59;;;;;;;4.73;4.43;;;;;;;16.53;68.26;100774.88;5101562;28;20667;-73
2021/06/26 03:34:25;;;;;;;4.73;4.43;;;;;;;16.47;68.27;100783.88;5102677;28;20217;-73
2021/06/26 03:36:52;;;;;;;4.67;4.37;;;;;;;16.37;68.25;100790.41;5101572;28;20233;-73
2021/06/26 03:39:18;;;;;;;4.20;4.00;;;;;;;16.42;68.69;100765.63;5102072;28;20686;-73
2021/06/26 03:41:46;;;;;;;4.60;4.30;;;;;;;16.47;69.11;100757.53;5102566;28;20210;-73
2021/06/26 03:44:12;;;;;;;4.90;4.50;;;;;;;16.53;68.85;100762.59;5102429;28;20206;-73
2021/06/26 03:46:39;;;;;;;5.50;5.10;;;;;;;16.47;69.57;100745.22;5101794;28;20739;-73
2021/06/26 03:49:06;;;;;;;4.13;3.90;;;;;;;16.46;70.24;100719.78;5103972;28;20201;-73
2021/06/26 03:51:33;;;;;;;5.33;4.97;;;;;;;16.45;70.53;100704.91;5105719;28;20286;-73
2021/06/26 03:54:00;;;;;;;5.10;4.80;;;;;;;16.47;69.92;100718.88;5105464;28;20216;-73
2021/06/26 03:56:26;;;;;;;5.27;4.77;;;;;;;16.53;69.79;100743.25;5105357;28;20235;-73
2021/06/26 03:58:54;;;;;;;5.27;4.93;;;;;;;16.59;69.40;100754.44;5106232;28;20209;-73
2021/06/26 04:01:20;;;;;;;5.20;4.80;;;;;;;16.64;69.09;100770.91;5105756;28;20197;-73
2021/06/26 04:03:48;;;;;;;5.63;5.23;;;;;;;16.61;69.01;100781.59;5105158;28;20562;-73
2021/06/26 04:06:14;;;;;;;5.33;4.93;;;;;;;16.68;68.21;100808.56;5105799;28;20219;-73
2021/06/26 04:08:41;;;;;;;5.50;5.20;;;;;;;16.68;67.91;100838.41;5104960;28;20211;-73
2021/06/26 04:11:07;;;;;;;5.70;5.40;;;;;;;16.71;68.77;100800.56;5105699;28;20210;-73
2021/06/26 04:13:34;;;;;;;6.40;5.90;;;;;;;16.79;68.84;100777.38;5105194;28;20212;-72
2021/06/26 04:16:04;;;;;;;5.10;4.73;;;;;;;16.84;68.66;100816.78;5105641;28;20232;-73
2021/06/26 04:18:30;;;;;;;6.33;5.93;;;;;;;16.85;69.01;100800.06;5109730;28;20214;-73
2021/06/26 04:20:57;;;;;;;6.17;5.77;;;;;;;16.89;70.00;100759.44;5110633;28;20556;-73
2021/06/26 04:23:23;;;;;;;5.47;5.03;;;;;;;16.97;70.02;100756.50;5109729;28;20206;-73
2021/06/26 04:25:51;;;;;;;6.13;5.73;;;;;;;16.99;69.08;100795.06;5107024;28;20240;-73
2021/06/26 04:28:18;;;;;;;5.70;5.30;;;;;;;17.04;69.02;100806.28;5105054;28;20623;-72
2021/06/26 04:30:44;;;;;;;6.23;5.83;;;;;;;17.07;69.39;100794.78;5105096;28;20237;-74
2021/06/26 04:33:12;;;;;;;6.50;6.10;;;;;;;17.15;67.97;100856.00;5104471;28;20214;-74
2021/06/26 04:35:39;;;;;;;5.87;5.57;;;;;;;17.14;68.19;100867.44;5104743;28;20234;-73
2021/06/26 04:38:06;;;;;;;5.57;5.17;;;;;;;17.21;70.43;100765.19;5104731;28;20965;-73
2021/06/26 04:40:32;;;;;;;6.30;5.80;;;;;;;17.16;70.32;100756.59;5105294;28;20227;-73
2021/06/26 04:42:59;;;;;;;4.33;4.03;;;;;;;17.24;70.67;100754.50;5104578;28;20217;-74
2021/06/26 04:45:25;;;;;;;4.80;4.40;;;;;;;17.29;71.13;100734.06;5104733;28;20229;-73
2021/06/26 04:47:52;;;;;;;4.60;4.30;;;;;;;17.32;70.76;100749.75;5104324;28;20216;-73
2021/06/26 04:50:20;;;;;;;4.20;3.90;;;;;;;17.36;70.58;100761.03;5104435;28;20735;-73
2021/06/26 04:52:47;;;;;;;4.50;4.10;;;;;;;17.36;70.39;100785.69;5104696;28;20209;-73
2021/06/26 04:55:14;;;;;;;5.00;4.70;;;;;;;17.40;69.92;100804.84;5104541;27;20566;-73
2021/06/26 04:57:41;;;;;;;5.43;4.80;;;;;;;17.40;71.47;100750.31;5104979;28;20223;-73
2021/06/26 05:00:09;;;;;;;5.87;5.47;;;;;;;17.44;70.89;100757.19;5107274;28;20204;-73
2021/06/26 05:02:35;;;;;;;5.70;5.23;;;;;;;17.36;71.27;100742.56;5106624;28;20254;-73
2021/06/26 05:05:02;;;;;;;4.20;4.00;;;;;;;17.41;71.73;100730.91;5105450;28;20210;-73
2021/06/26 05:07:30;;;;;;;5.30;5.00;;;;;;;17.38;72.08;100719.63;5104816;28;20241;-74
2021/06/26 05:09:56;;;;;;;5.70;5.30;;;;;;;17.29;72.89;100683.94;5104451;28;20649;-73
2021/06/26 05:12:23;;;;;;;5.20;4.90;;;;;;;17.36;72.48;100705.63;5104265;28;20350;-73
2021/06/26 05:14:50;;;;;;;4.83;4.47;;;;;;;17.43;73.14;100684.19;5103989;28;20219;-74
2021/06/26 05:17:16;;;;;;;5.63;5.13;;;;;;;16.87;75.88;100590.75;5103577;28;20225;-74
2021/06/26 05:19:43;;;;;;;5.40;5.10;;;;;;;16.87;76.15;100558.28;5104080;28;20221;-73
2021/06/26 05:22:09;;;;;;;4.90;4.40;;;;;;;17.06;76.08;100568.84;5104056;28;20657;-74
2021/06/26 05:24:37;;;;;;;5.17;4.77;;;;;;;17.25;74.87;100632.22;5103991;28;20210;-73
2021/06/26 05:27:04;;;;;;;6.23;5.83;;;;;;;17.39;74.53;100660.66;5103736;28;20221;-73
2021/06/26 05:29:31;;;;;;;5.33;5.03;;;;;;;17.51;74.35;100646.91;5104353;28;20201;-73
2021/06/26 05:31:58;;;;;;;5.20;4.90;;;;;;;17.64;74.28;100668.31;5103567;28;20272;-73
2021/06/26 05:34:24;;;;;;;4.37;4.07;;;;;;;17.75;73.46;100702.19;5103622;28;20235;-73
2021/06/26 05:36:51;;;;;;;5.80;5.30;;;;;;;17.81;73.22;100705.41;5103412;28;20238;-73
2021/06/26 05:39:18;;;;;;;6.13;5.63;;;;;;;17.86;72.26;100761.56;5103335;28;20221;-73
2021/06/26 05:41:46;;;;;;;5.33;4.93;;;;;;;17.96;72.66;100754.06;5103849;28;20204;-72
2021/06/26 05:44:12;;;;;;;5.00;4.70;;;;;;;18.03;72.51;100752.84;5103338;28;20205;-73
2021/06/26 05:46:38;;;;;;;4.53;4.23;;;;;;;18.11;72.43;100754.31;5103325;28;20251;-73
2021/06/26 05:49:05;;;;;;;4.97;4.67;;;;;;;18.16;72.11;100776.13;5103732;28;20202;-71
2021/06/26 05:51:32;;;;;;;4.70;4.30;;;;;;;18.21;72.06;100777.59;5103661;28;20287;-74
2021/06/26 05:53:58;;;;;;;5.40;5.10;;;;;;;18.26;72.03;100783.53;5102900;28;20642;-73
2021/06/26 05:56:25;;;;;;;5.37;4.87;;;;;;;18.29;71.45;100795.75;5103787;28;20236;-72
2021/06/26 05:58:53;;;;;;;4.77;4.47;;;;;;;18.35;71.31;100807.81;5103229;28;20218;-72
2021/06/26 06:01:19;;;;;;;5.17;4.87;;;;;;;18.42;71.92;100790.78;5104302;27;20281;-72
2021/06/26 06:03:47;;;;;;;5.87;5.37;;;;;;;18.48;71.76;100800.22;5103680;27;20302;-72
2021/06/26 06:06:13;;;;;;;4.80;4.37;;;;;;;18.53;72.18;100771.75;5104676;27;20225;-72
2021/06/26 06:08:39;;;;;;;5.17;4.87;;;;;;;18.55;72.62;100748.75;5104343;27;20228;-72
2021/06/26 06:11:06;;;;;;;5.20;4.80;;;;;;;18.58;71.96;100767.13;5104018;28;20206;-72
2021/06/26 06:13:32;;;;;;;6.57;6.07;;;;;;;18.60;72.37;100765.25;5103122;27;20267;-72
2021/06/26 06:16:00;;;;;;;7.27;6.77;;;;;;;18.29;72.59;100761.38;5104171;27;20226;-73
2021/06/26 06:18:27;;;;;;;6.37;6.03;;;;;;;18.41;72.09;100778.47;5103855;28;20230;-71
2021/06/26 06:20:53;;;;;;;7.03;6.43;;;;;;;18.44;71.50;100810.91;5102486;28;20687;-74
2021/06/26 06:23:19;;;;;;;6.63;6.20;;;;;;;18.36;70.50;100852.69;5101958;28;20211;-73
2021/06/26 06:25:46;;;;;;;7.27;6.87;;;;;;;18.53;70.05;100885.44;5102588;28;20233;-73
2021/06/26 06:28:13;;;;;;;7.53;6.87;;;;;;;18.37;70.32;100886.13;5102727;28;20684;-73
2021/06/26 06:30:39;;;;;;;8.33;7.77;;;;;;;18.49;70.13;100883.88;5103130;28;20218;-73
2021/06/26 06:33:07;;;;;;;8.23;7.53;;;;;;;18.64;70.02;100885.81;5101657;28;20295;-73
2021/06/26 06:35:34;;;;;;;8.43;7.93;;;;;;;18.63;69.38;100911.41;5102248;28;20230;-72
2021/06/26 06:38:01;;;;;;;9.83;9.03;;;;;;;18.63;66.91;101032.16;5102792;28;20230;-73
2021/06/26 06:40:28;;;;;;;9.60;8.90;;;;;;;18.80;67.09;101029.69;5102989;28;20896;-73
2021/06/26 06:42:55;;;;;;;9.70;9.03;;;;;;;18.96;66.76;101053.69;5102350;28;20206;-73
2021/06/26 06:45:22;;;;;;;9.40;8.80;;;;;;;19.08;66.47;101051.44;5102792;28;20199;-73
2021/06/26 06:47:48;;;;;;;9.33;8.67;;;;;;;19.12;66.70;101047.72;5102272;28;20239;-74
2021/06/26 06:50:16;;;;;;;8.87;8.23;;;;;;;19.14;65.99;101075.81;5102285;28;20669;-73
2021/06/26 06:52:43;;;;;;;10.00;9.23;;;;;;;19.20;66.44;101061.47;5101972;28;20218;-73
2021/06/26 06:55:10;;;;;;;10.00;9.13;;;;;;;19.03;63.66;101197.19;5102619;28;20210;-73
2021/06/26 06:57:37;;;;;;;9.00;8.40;;;;;;;19.22;64.59;101144.31;5102256;28;20398;-73
2021/06/26 07:00:09;;;;;;;7.97;7.47;;;;;;;19.32;65.00;101102.41;5102301;28;20770;-74
2021/06/26 07:02:36;;;;;;;8.40;7.90;;;;;;;19.44;64.38;101128.31;5100964;28;20207;-75
2021/06/26 07:05:05;;;;;;;8.20;7.63;;;;;;;19.51;64.13;101147.47;5102731;28;20204;-73
2021/06/26 07:07:33;;;;;;;8.03;7.17;;;;;;;19.61;63.96;101157.56;5102346;28;20689;-73
2021/06/26 07:10:00;;;;;;;9.37;8.63;;;;;;;19.61;65.19;101112.53;5103069;28;20208;-75
2021/06/26 07:12:26;;;;;;;8.80;8.20;;;;;;;19.73;65.35;101081.16;5102161;28;20676;-73
2021/06/26 07:14:53;;;;;;;7.27;6.77;;;;;;;19.90;64.97;101088.28;5102559;28;20576;-73
2021/06/26 07:17:19;;;;;;;7.97;7.37;;;;;;;20.07;64.11;101140.50;5101873;28;20227;-73
2021/06/26 07:19:45;;;;;;;8.07;7.57;;;;;;;20.18;63.18;101192.09;5102557;28;20215;-73
2021/06/26 07:22:12;;;;;;;7.30;6.87;;;;;;;20.30;62.74;101216.31;5102124;28;20631;-73
2021/06/26 07:24:39;;;;;;;7.37;6.87;;;;;;;20.35;62.19;101220.44;5105367;28;20233;-73
2021/06/26 07:27:06;;;;;;;6.93;6.43;;;;;;;20.41;62.17;101244.00;5106135;28;20215;-73
2021/06/26 07:29:32;;;;;;;6.77;6.27;;;;;;;20.48;64.26;101135.84;5106120;28;20736;-74
2021/06/26 07:31:59;;;;;;;7.43;6.83;;;;;;;20.33;62.70;101171.06;5106050;28;20212;-73
2021/06/26 07:34:25;;;;;;;7.77;7.27;;;;;;;20.39;62.69;101202.59;5105832;28;20206;-73
2021/06/26 07:36:52;;;;;;;6.60;6.10;;;;;;;20.54;62.33;101223.09;5106116;28;20738;-73
2021/06/26 07:39:18;;;;;;;7.53;7.03;;;;;;;20.60;62.20;101229.91;5106121;28;20199;-73
2021/06/26 07:41:46;;;;;;;7.27;6.77;;;;;;;20.72;61.93;101247.03;5106435;28;20256;-73
2021/06/26 07:44:12;;;;;;;8.53;6.80;;;;;;;20.77;61.45;101239.69;5105825;28;20258;-73
2021/06/26 07:46:39;;;;;;;7.40;6.83;;;;;;;20.62;62.10;101222.75;5105907;28;20285;-73
2021/06/26 07:49:06;;;;;;;7.53;7.13;;;;;;;20.69;62.19;101200.28;5106019;28;20201;-73
2021/06/26 07:51:32;;;;;;;7.47;6.87;;;;;;;20.72;62.47;101205.44;5106043;28;20207;-72
2021/06/26 07:53:58;;;;;;;7.40;6.90;;;;;;;20.86;61.31;101262.28;5105674;28;20198;-73
2021/06/26 07:56:25;;;;;;;8.23;7.73;;;;;;;20.92;60.21;101300.00;5105160;28;20810;-73
2021/06/26 07:58:53;;;;;;;8.03;7.43;;;;;;;21.03;59.78;101321.59;5105991;27;21153;-73
2021/06/26 08:01:20;;;;;;;8.73;8.23;;;;;;;21.13;59.72;101316.69;5106398;27;20194;-73
2021/06/26 08:03:46;;;;;;;8.50;7.90;;;;;;;21.21;59.49;101317.16;5104136;28;20226;-73
2021/06/26 08:06:13;;;;;;;8.47;7.87;;;;;;;21.27;59.86;101299.19;5105502;28;20227;-73
2021/06/26 08:08:39;;;;;;;7.93;7.43;;;;;;;21.38;58.91;101342.88;5105854;27;20211;-73
2021/06/26 08:11:05;;;;;;;8.53;8.03;;;;;;;21.38;60.50;101280.94;5105867;28;20470;-73
2021/06/26 08:13:32;;;;;;;9.50;8.90;;;;;;;20.83;58.00;101394.19;5105505;27;20207;-73
2021/06/26 08:15:59;;;;;;;8.77;8.27;;;;;;;20.42;58.85;101357.13;5104994;28;20225;-72
2021/06/26 08:18:26;;;;;;;9.33;8.67;;;;;;;20.43;60.03;101283.72;5105910;28;20622;-72
2021/06/26 08:20:52;;;;;;;8.17;7.57;;;;;;;20.47;61.24;101239.34;5104987;28;20279;-74
2021/06/26 08:23:19;;;;;;;8.00;7.37;;;;;;;20.79;60.23;101269.69;5105556;27;20222;-72
2021/06/26 08:25:45;;;;;;;10.33;8.87;;;;;;;21.05;59.58;101329.47;5105328;28;20223;-72
2021/06/26 08:28:11;;;;;;;7.77;6.97;;;;;;;21.21;59.05;101335.75;5103933;28;20208;-73
2021/06/26 08:30:38;;;;;;;9.10;8.50;;;;;;;21.18;57.92;101401.41;5103298;28;20924;-72
2021/06/26 08:33:06;;;;;;;9.10;8.60;;;;;;;21.22;56.68;101427.75;5103620;28;20199;-73
2021/06/26 08:35:32;;;;;;;8.50;7.90;;;;;;;20.92;56.66;101455.75;5103081;28;20688;-72
2021/06/26 08:37:59;;;;;;;8.83;8.23;;;;;;;20.59;56.56;101461.63;5105273;28;20219;-73
2021/06/26 08:40:25;;;;;;;7.50;6.90;;;;;;;20.43;57.52;101379.19;5105069;28;20203;-72
2021/06/26 08:42:53;;;;;;;8.20;7.70;;;;;;;20.40;58.50;101350.19;5104715;28;20263;-73
2021/06/26 08:45:20;;;;;;;8.30;7.70;;;;;;;20.72;58.75;101316.88;5105003;28;20207;-73
2021/06/26 08:47:48;;;;;;;7.03;6.53;;;;;;;21.08;57.63;101373.59;5104986;28;20214;-72
2021/06/26 08:50:17;;;;;;;8.70;8.20;;;;;;;21.30;56.84;101416.75;5105081;28;20202;-72
2021/06/26 08:52:44;;;;;;;7.37;6.97;;;;;;;21.48;54.33;101565.59;5104780;28;20251;-72
2021/06/26 08:55:11;;;;;;;8.13;7.53;;;;;;;21.41;52.12;101666.81;5104214;28;20191;-72
2021/06/26 08:57:40;;;;;;;8.53;7.80;;;;;;;21.17;50.00;101748.44;5104507;28;20211;-72
2021/06/26 09:00:09;;;;;;;7.03;6.53;;;;;;;21.32;51.30;101688.44;5105150;28;20291;-73
2021/06/26 09:02:36;;;;;;;6.80;6.30;;;;;;;21.44;52.73;101593.25;5104456;28;20224;-73
2021/06/26 09:05:04;;;;;;;6.20;5.70;;;;;;;21.72;52.22;101601.66;5104403;28;20207;-72
2021/06/26 09:07:34;;;;;;;6.00;5.70;;;;;;;21.71;49.86;101716.03;5103843;28;20302;-72
2021/06/26 09:10:12;;;;;;;6.33;5.93;;;;;;;21.84;50.87;101677.28;5104053;28;20215;-74
2021/06/26 09:12:39;;;;;;;6.53;6.13;;;;;;;21.94;48.08;101794.72;5104025;28;20210;-71
2021/06/26 09:15:08;;;;;;;5.60;5.30;;;;;;;22.19;49.90;101730.63;5104262;28;20196;-72
2021/06/26 09:17:36;;;;;;;7.47;6.97;;;;;;;22.15;47.95;101830.13;5104402;28;20226;-72
2021/06/26 09:20:08;;;;;;;5.73;5.40;;;;;;;22.28;49.87;101697.44;5104060;28;20225;-73
2021/06/26 09:22:41;;;;;;;6.00;5.60;;;;;;;22.42;49.60;101708.31;5103723;28;20207;-72
2021/06/26 09:25:34;;;;;;;6.57;5.23;;;;;;;22.44;47.93;101809.31;5103959;28;20218;-74
2021/06/26 09:28:03;;;;;;;6.63;6.20;;;;;;;22.53;47.21;101816.88;5103986;28;20204;-72
2021/06/26 09:30:38;;;;;;;7.27;6.77;;;;;;;22.48;45.86;101907.56;5103692;28;20208;-73
2021/06/26 09:33:16;;;;;;;6.13;5.73;;;;;;;22.58;42.91;101991.38;5103033;28;20195;-74
2021/06/26 09:35:45;;;;;;;6.03;5.63;;;;;;;22.58;45.57;101935.50;5103820;28;20443;-72
2021/06/26 09:38:13;;;;;;;6.23;5.63;;;;;;;22.66;46.53;101836.66;5103574;28;20613;-73
2021/06/26 09:40:42;;;;;;;6.37;5.90;;;;;;;22.66;45.98;101844.66;5101780;28;20222;-73
2021/06/26 09:43:09;;;;;;;5.60;5.20;;;;;;;22.55;44.74;101970.22;5101122;28;20657;-73
2021/06/26 09:45:36;;;;;;;6.50;6.00;;;;;;;22.64;43.79;101949.47;5100939;28;20229;-72
2021/06/26 09:48:07;;;;;;;5.30;5.00;;;;;;;22.65;43.77;101983.13;5101690;28;20195;-73
2021/06/26 09:50:37;;;;;;;5.90;5.47;;;;;;;22.58;42.05;102019.81;5102027;28;20211;-73
2021/06/26 09:53:06;;;;;;;5.50;5.20;;;;;;;22.49;43.08;102037.03;5103094;28;20200;-73
2021/06/26 09:55:35;;;;;;;6.50;6.00;;;;;;;22.38;40.92;102146.59;5105676;28;20310;-73
2021/06/26 09:58:03;;;;;;;5.20;4.90;;;;;;;22.45;42.14;102069.16;5106769;28;20234;-73
2021/06/26 10:00:31;;;;;;;5.70;5.30;;;;;;;22.34;41.09;102117.53;5106434;28;20211;-73
2021/06/26 10:02:58;;;;;;;5.43;5.13;;;;;;;22.44;43.12;101984.94;5103087;28;20590;-72
2021/06/26 10:05:25;;;;;;;5.77;5.40;;;;;;;22.45;43.95;101891.75;5105080;28;20620;-73
2021/06/26 10:07:53;;;;;;;5.80;5.40;;;;;;;22.46;43.76;101895.25;5103676;28;20218;-73
2021/06/26 10:10:21;;;;;;;6.00;5.70;;;;;;;22.51;44.61;101867.50;5103135;28;20204;-74
2021/06/26 10:12:50;;;;;;;5.80;5.40;;;;;;;22.53;45.34;101827.53;5102533;28;20564;-73
2021/06/26 10:15:18;;;;;;;6.17;5.77;;;;;;;22.60;43.79;101904.34;5103075;28;20224;-72
2021/06/26 10:17:45;;;;;;;5.90;5.50;;;;;;;22.61;43.66;101931.81;5102470;28;20970;-73
2021/06/26 10:20:13;;;;;;;6.43;5.83;;;;;;;22.71;44.25;101895.00;5103110;28;20211;-73
2021/06/26 10:22:43;;;;;;;6.00;5.60;;;;;;;22.66;42.88;101955.59;5102425;28;20758;-73
2021/06/26 10:25:11;;;;;;;5.83;5.53;;;;;;;22.65;44.36;101887.31;5102560;28;20203;-72
2021/06/26 10:27:38;;;;;;;5.47;5.07;;;;;;;22.73;44.91;101832.75;5102252;28;20578;-74
2021/06/26 10:30:15;;;;;;;6.47;6.03;;;;;;;22.84;43.99;101818.09;5102752;28;20564;-72
2021/06/26 10:32:53;;;;;;;6.10;5.63;;;;;;;22.94;44.94;101830.00;5101641;28;20214;-73
2021/06/26 10:35:21;;;;;;;6.47;6.07;;;;;;;22.96;43.24;101958.63;5102493;28;20660;-73
2021/06/26 10:37:59;;;;;;;5.43;5.13;;;;;;;23.06;43.94;101901.34;5102151;28;20213;-73
2021/06/26 10:40:36;;;;;;;5.83;5.50;;;;;;;23.11;42.66;101957.06;5102953;28;20207;-73
2021/06/26 10:43:13;;;;;;;5.47;5.17;;;;;;;23.14;44.15;101891.19;5101608;28;20203;-72
2021/06/26 10:45:41;;;;;;;5.47;4.97;;;;;;;23.25;45.34;101765.47;5102568;28;20709;-73
2021/06/26 10:48:16;;;;;;;4.90;4.60;;;;;;;23.27;46.32;101776.91;5102306;28;20202;-73
2021/06/26 10:50:46;;;;;;;4.13;3.93;;;;;;;23.36;44.61;101876.81;5102588;28;20211;-73
2021/06/26 10:53:23;;;;;;;5.23;4.93;;;;;;;23.47;44.58;101826.50;5102986;28;20210;-72
2021/06/26 10:55:59;;;;;;;5.53;5.23;;;;;;;23.52;44.75;101808.47;5102448;28;20700;-72
2021/06/26 10:58:28;;;;;;;4.77;4.57;;;;;;;23.60;41.41;102029.31;5102663;28;20728;-72
2021/06/26 11:00:57;;;;;;;5.63;5.33;;;;;;;23.67;43.58;101870.81;5106683;28;20958;-73
2021/06/26 11:03:28;;;;;;;4.97;4.67;;;;;;;23.72;42.98;101932.72;5105813;28;20199;-72
2021/06/26 11:05:54;;;;;;;5.13;4.83;;;;;;;23.80;43.02;101967.06;5106749;28;20628;-73
2021/06/26 11:08:24;;;;;;;5.57;5.07;;;;;;;23.93;42.03;101929.97;5106814;28;20666;-74
2021/06/26 11:10:54;;;;;;;5.10;4.70;;;;;;;24.00;41.44;101995.38;5106545;28;20586;-73
2021/06/26 11:13:22;;;;;;;5.07;4.77;;;;;;;24.13;43.53;101899.59;5106133;28;20206;-73
2021/06/26 11:15:49;;;;;;;5.13;4.77;;;;;;;24.16;43.32;101870.94;5105621;28;20735;-73
2021/06/26 11:18:17;;;;;;;4.80;4.50;;;;;;;24.37;43.87;101799.50;5105955;28;20234;-72
2021/06/26 11:20:44;;;;;;;5.73;5.30;;;;;;;24.45;38.40;102174.63;5105953;28;20226;-72
2021/06/26 11:23:16;;;;;;;4.90;4.70;;;;;;;24.52;38.37;102165.41;5106117;28;20591;-72
2021/06/26 11:25:43;;;;;;;5.07;4.77;;;;;;;24.60;37.85;102221.06;5105590;28;20306;-71